createdAt,value
2019-04-16T08:42:58.160Z,23.15
2019-04-16T08:43:02.972Z,23.21
2019-04-16T08:43:09.188Z,23.23
2019-04-16T08:43:14.963Z,23.26
2019-04-16T08:43:20.951Z,23.27
2019-04-16T08:43:29.651Z,23.31
2019-04-16T08:43:32.936Z,23.32
2019-04-16T08:43:38.931Z,23.35
2019-04-16T08:43:44.954Z,23.35
2019-04-16T08:43:50.955Z,23.36
2019-04-16T08:43:59.727Z,23.39
2019-04-16T08:44:04.573Z,23.41
2019-04-16T08:44:10.334Z,23.43
2019-04-16T08:44:14.931Z,23.44
2019-04-16T08:44:20.934Z,23.45
2019-04-16T08:44:26.925Z,23.46
2019-04-16T08:44:35.597Z,23.48
2019-04-16T08:44:38.884Z,23.49
2019-04-16T08:44:44.870Z,23.50
2019-04-16T08:44:50.885Z,23.51
2019-04-16T08:44:56.872Z,23.51
2019-04-16T08:45:07.570Z,23.53
2019-04-16T08:45:09.863Z,23.54
2019-04-16T08:45:14.850Z,23.54
2019-04-16T08:45:20.960Z,23.55
2019-04-16T08:45:26.829Z,23.56
2019-04-16T08:45:32.840Z,23.56
2019-04-16T08:45:39.883Z,23.57
2019-04-16T08:45:44.908Z,23.58
2019-04-16T08:45:50.829Z,23.57
2019-04-16T08:45:56.832Z,23.58
2019-04-16T08:46:02.808Z,23.60
2019-04-16T08:46:11.259Z,23.61
2019-04-16T08:46:14.792Z,23.63
2019-04-16T08:46:20.790Z,23.68
2019-04-16T08:46:28.287Z,23.72
2019-04-16T08:46:32.762Z,23.76
2019-04-16T08:46:40.080Z,23.77
2019-04-16T08:46:44.740Z,23.80
2019-04-16T08:46:50.739Z,23.81
2019-04-16T08:46:58.611Z,23.84
2019-04-16T08:47:02.996Z,23.84
2019-04-16T08:47:32.915Z,23.82
2019-04-16T08:48:32.889Z,24.00
2019-04-16T08:49:30.256Z,24.05
2019-04-16T08:50:57.882Z,24.25
2019-04-16T08:51:59.753Z,24.29
2019-04-16T08:53:00.711Z,24.39
2019-04-16T08:53:59.650Z,24.38
2019-04-16T08:54:59.619Z,24.37
2019-04-16T08:55:59.540Z,24.41
2019-04-16T08:56:59.521Z,24.47
2019-04-16T08:57:59.442Z,24.42
2019-04-16T09:40:34.999Z,19.55
2019-04-16T09:41:34.973Z,20.08
2019-04-16T09:42:35.137Z,20.34
2019-04-16T09:43:35.004Z,20.56
2019-04-16T09:44:35.617Z,20.78
2019-04-16T09:45:37.141Z,20.98
2019-04-16T09:46:50.563Z,21.16
2019-04-16T09:47:35.783Z,21.32
2019-04-16T09:48:35.563Z,21.48
2019-04-16T09:49:37.600Z,21.60
2019-04-16T09:50:34.760Z,21.70
2019-04-16T09:51:34.784Z,21.78
2019-04-16T09:52:34.719Z,21.87
2019-04-16T09:53:12.656Z,21.80
2019-04-16T09:53:46.462Z,21.84
2019-04-16T10:30:11.999Z,22.05
2019-04-16T10:31:11.993Z,22.20
2019-04-16T10:32:11.973Z,22.26
2019-04-16T10:33:12.664Z,22.33
2019-04-16T10:34:11.926Z,22.45
2019-04-16T10:35:11.941Z,22.57
2019-04-16T10:36:11.923Z,22.71
2019-04-16T10:37:11.927Z,22.86
2019-04-16T10:38:13.645Z,22.99
2019-04-16T10:39:11.950Z,23.11
2019-04-16T10:40:11.920Z,23.21
2019-04-16T10:41:15.552Z,23.17
2019-04-16T10:42:15.540Z,23.36
2019-04-16T10:43:15.880Z,23.47
2019-04-16T10:44:15.878Z,23.53
2019-04-16T10:45:15.762Z,23.58
2019-04-16T10:46:19.615Z,23.63
2019-04-16T10:47:16.663Z,23.68
2019-04-16T10:48:15.496Z,23.73
2019-04-16T10:49:15.475Z,23.81
2019-04-16T10:50:15.495Z,23.95
2019-04-16T10:51:16.209Z,24.16
2019-04-16T10:52:15.443Z,24.62
2019-04-16T10:53:15.444Z,25.82
2019-04-16T10:54:15.429Z,29.21
2019-04-16T10:55:18.548Z,32.82
2019-04-16T10:56:20.655Z,36.30
2019-04-16T10:57:15.844Z,38.90
2019-04-16T10:58:15.382Z,40.91
2019-04-16T10:59:15.347Z,42.46
2019-04-16T11:00:15.358Z,43.58
2019-04-16T11:01:15.591Z,44.35
2019-04-16T11:02:15.343Z,43.90
2019-04-16T11:03:15.324Z,43.27
2019-04-16T11:04:16.323Z,42.57
2019-04-16T11:05:19.307Z,40.76
2019-04-16T11:06:15.358Z,38.23
2019-04-16T11:07:15.325Z,36.16
2019-04-16T11:08:15.261Z,34.64
2019-04-16T11:09:15.232Z,33.49
2019-04-16T11:10:15.289Z,32.66
2019-04-16T11:11:15.742Z,32.00
2019-04-16T11:12:15.250Z,31.45
2019-04-16T11:13:15.711Z,30.96
2019-04-16T11:14:15.222Z,30.55
2019-04-16T11:15:15.594Z,30.19
2019-04-16T11:16:15.612Z,29.86
2019-04-16T11:17:15.413Z,29.55
2019-04-16T11:18:15.245Z,29.28
2019-04-16T11:19:15.131Z,29.03
2019-04-16T11:20:15.400Z,28.78
2019-04-16T11:21:15.160Z,28.55
2019-04-16T11:22:15.157Z,28.35
2019-04-16T11:23:15.931Z,28.17
2019-04-16T11:24:15.879Z,28.04
2019-04-16T11:25:15.209Z,27.93
2019-04-16T11:26:15.221Z,27.85
2019-04-16T11:27:15.188Z,27.74
2019-04-16T11:28:15.097Z,27.64
2019-04-16T11:29:15.292Z,27.55
2019-04-16T11:30:15.262Z,27.51
2019-04-16T11:31:15.135Z,27.63
2019-04-16T11:32:15.017Z,27.64
2019-04-16T11:33:14.974Z,28.21
2019-04-16T11:34:15.229Z,30.04
2019-04-16T11:35:17.319Z,33.20
2019-04-16T11:36:19.636Z,37.35
2019-04-16T11:37:15.959Z,40.22
2019-04-16T11:38:17.309Z,42.41
2019-04-16T11:39:14.951Z,44.13
2019-04-16T11:40:14.943Z,45.43
2019-04-16T11:41:15.067Z,46.54
2019-04-16T11:42:14.878Z,47.52
2019-04-16T11:43:14.933Z,48.37
2019-04-16T11:44:17.177Z,49.19
2019-04-16T11:45:14.898Z,49.92
2019-04-16T11:46:14.890Z,50.50
2019-04-16T11:47:14.957Z,50.96
2019-04-16T11:48:14.875Z,51.42
2019-04-16T11:49:14.816Z,51.86
2019-04-16T11:50:14.815Z,52.31
2019-04-16T11:51:14.814Z,52.70
2019-04-16T11:52:14.835Z,53.07
2019-04-16T11:53:14.793Z,53.54
2019-04-16T11:54:14.755Z,53.94
2019-04-16T11:55:14.749Z,54.18
2019-04-16T11:56:14.788Z,54.37
2019-04-16T11:57:14.816Z,54.62
2019-04-16T11:58:14.749Z,54.87
2019-04-16T11:59:14.719Z,55.09
2019-04-16T12:00:14.722Z,55.30
2019-04-16T12:01:14.714Z,55.40
2019-04-16T12:02:14.768Z,55.54
2019-04-16T12:03:14.949Z,55.61
2019-04-16T12:04:16.434Z,55.60
2019-04-16T12:05:14.630Z,55.62
2019-04-16T12:06:27.445Z,55.72
2019-04-16T12:07:17.425Z,55.94
2019-04-16T12:08:14.607Z,56.16
2019-04-16T12:09:14.873Z,56.41
2019-04-16T12:10:14.601Z,56.59
2019-04-16T12:11:14.592Z,56.67
2019-04-16T12:12:14.929Z,56.73
2019-04-16T12:13:14.825Z,56.81
2019-04-16T12:14:28.642Z,56.85
2019-04-16T12:15:17.359Z,57.00
2019-04-16T12:16:14.612Z,57.09
2019-04-16T12:17:14.543Z,57.19
2019-04-16T12:18:14.526Z,57.23
2019-04-16T12:19:14.691Z,57.27
2019-04-16T12:20:14.516Z,57.38
2019-04-16T12:21:14.513Z,57.56
2019-04-16T12:22:14.466Z,57.72
2019-04-16T12:23:14.689Z,57.73
2019-04-16T12:24:14.704Z,57.64
2019-04-16T12:25:14.477Z,57.61
2019-04-16T12:26:14.636Z,57.53
2019-04-16T12:27:14.472Z,57.53
2019-04-16T12:28:14.415Z,57.72
2019-04-16T12:29:14.553Z,57.82
2019-04-16T12:30:14.589Z,57.68
2019-04-16T12:31:16.635Z,57.59
2019-04-16T12:32:14.561Z,57.59
2019-04-16T12:33:15.067Z,57.67
2019-04-16T12:34:14.346Z,57.74
2019-04-16T12:35:14.988Z,57.80
2019-04-16T12:36:14.719Z,57.77
2019-04-16T12:37:14.614Z,57.73
2019-04-16T12:38:18.176Z,57.75
2019-04-16T12:39:18.793Z,57.70
2019-04-16T12:40:19.365Z,57.62
2019-04-16T12:41:15.280Z,57.45
2019-04-16T12:42:14.279Z,57.28
2019-04-16T12:43:16.022Z,57.15
2019-04-16T12:44:14.792Z,57.04
2019-04-16T12:45:14.705Z,56.89
2019-04-16T12:46:14.397Z,56.73
2019-04-16T12:47:14.944Z,56.58
2019-04-16T12:48:14.742Z,56.47
2019-04-16T12:49:14.343Z,56.55
2019-04-16T12:50:16.750Z,56.77
2019-04-16T12:51:14.398Z,57.06
2019-04-16T12:52:17.205Z,57.25
2019-04-16T12:53:14.265Z,57.41
2019-04-16T12:54:14.447Z,57.31
2019-04-16T12:55:14.264Z,56.60
2019-04-16T12:56:14.150Z,55.43
2019-04-16T12:57:16.499Z,55.95
2019-04-16T12:58:18.882Z,56.31
2019-04-16T12:59:15.212Z,56.56
2019-04-16T13:00:14.109Z,56.69
2019-04-16T13:01:14.091Z,56.82
2019-04-16T13:02:14.308Z,56.91
2019-04-16T13:03:17.749Z,56.98
2019-04-16T13:04:14.031Z,57.02
2019-04-16T13:05:14.121Z,57.12
2019-04-16T13:06:14.392Z,57.15
2019-04-16T13:07:14.039Z,57.09
2019-04-16T13:08:13.986Z,57.13
2019-04-16T13:09:14.507Z,57.23
2019-04-16T13:10:14.522Z,57.29
2019-04-16T13:11:13.999Z,57.36
2019-04-16T13:12:14.229Z,57.44
2019-04-16T13:13:14.058Z,57.44
2019-04-16T13:14:14.174Z,57.44
2019-04-16T13:15:13.946Z,57.48
2019-04-16T13:16:13.913Z,57.51
2019-04-16T13:17:18.692Z,57.51
2019-04-16T13:18:13.920Z,57.52
2019-04-16T13:19:13.966Z,57.45
2019-04-16T13:20:13.936Z,57.35
2019-04-16T13:21:13.889Z,57.26
2019-04-16T13:22:13.949Z,57.26
2019-04-16T13:23:13.952Z,57.22
2019-04-16T13:24:14.038Z,57.17
2019-04-16T13:25:13.823Z,57.02
2019-04-16T13:26:14.011Z,56.74
2019-04-16T13:27:13.811Z,56.59
2019-04-16T13:28:14.049Z,56.59
2019-04-16T13:29:16.826Z,56.69
2019-04-16T13:30:14.282Z,56.78
2019-04-16T13:31:13.789Z,56.77
2019-04-16T13:32:13.948Z,56.72
2019-04-16T13:33:13.768Z,56.69
2019-04-16T13:34:18.340Z,56.64
2019-04-16T13:35:14.758Z,56.52
2019-04-16T13:36:13.704Z,56.48
2019-04-16T13:37:13.706Z,56.46
2019-04-16T13:38:13.720Z,56.42
2019-04-16T13:39:13.722Z,56.35
2019-04-16T13:40:13.684Z,56.35
2019-04-16T13:41:13.670Z,56.38
2019-04-16T13:42:13.662Z,56.37
2019-04-16T13:43:13.640Z,56.42
2019-04-16T13:44:16.919Z,56.46
2019-04-16T13:45:17.594Z,56.40
2019-04-16T13:46:15.124Z,56.32
2019-04-16T13:47:13.635Z,56.22
2019-04-16T13:48:16.552Z,56.19
2019-04-16T13:49:13.599Z,56.08
2019-04-16T13:50:13.803Z,55.59
2019-04-16T13:51:18.462Z,55.05
2019-04-16T13:52:17.030Z,54.44
2019-04-16T13:53:14.605Z,53.99
2019-04-16T13:54:13.557Z,53.22
2019-04-16T13:55:13.525Z,52.23
2019-04-16T13:56:19.076Z,52.08
2019-04-16T13:57:14.265Z,52.27
2019-04-16T13:58:13.523Z,52.05
2019-04-16T13:59:13.505Z,51.47
2019-04-16T14:00:13.473Z,51.47
2019-04-16T14:01:13.467Z,51.22
2019-04-16T14:02:17.750Z,51.37
2019-04-16T14:03:14.452Z,51.48
2019-04-16T14:04:13.455Z,51.76
2019-04-16T14:05:13.440Z,52.07
2019-04-16T14:06:13.483Z,52.12
2019-04-16T14:07:13.410Z,52.25
2019-04-16T14:08:13.404Z,52.27
2019-04-16T14:09:13.381Z,52.31
2019-04-16T14:10:13.377Z,52.30
2019-04-16T14:11:13.388Z,52.18
2019-04-16T14:12:13.359Z,51.98
2019-04-16T14:13:14.291Z,51.78
2019-04-16T14:14:17.388Z,51.62
2019-04-16T14:15:13.328Z,51.60
2019-04-16T14:16:13.673Z,51.56
2019-04-16T14:17:17.730Z,51.57
2019-04-16T14:18:13.461Z,51.61
2019-04-16T14:19:14.162Z,51.63
2019-04-16T14:20:13.925Z,51.57
2019-04-16T14:21:14.480Z,51.58
2019-04-16T14:22:13.482Z,51.55
2019-04-16T14:23:13.718Z,51.38
2019-04-16T14:24:14.023Z,51.22
2019-04-16T14:25:13.284Z,51.08
2019-04-16T14:26:13.317Z,50.94
2019-04-16T14:27:14.462Z,50.65
2019-04-16T14:28:13.181Z,50.41
2019-04-16T14:29:13.169Z,50.17
2019-04-16T14:30:13.181Z,50.01
2019-04-16T14:31:16.276Z,49.87
2019-04-16T14:32:13.488Z,49.80
2019-04-16T14:33:13.200Z,49.69
2019-04-16T14:34:13.183Z,49.60
2019-04-16T14:35:13.109Z,49.54
2019-04-16T14:36:13.109Z,49.46
2019-04-16T14:37:13.111Z,49.33
2019-04-16T14:38:13.081Z,49.25
2019-04-16T14:39:13.089Z,49.16
2019-04-16T14:40:14.329Z,49.10
2019-04-16T14:41:16.152Z,48.91
2019-04-16T14:42:23.053Z,48.91
2019-04-16T14:43:14.942Z,48.91
2019-04-16T14:44:13.774Z,48.84
2019-04-16T14:45:13.695Z,47.18
2019-04-16T14:46:13.002Z,47.57
2019-04-16T14:47:12.981Z,47.90
2019-04-16T14:48:12.984Z,48.03
2019-04-16T14:49:15.248Z,48.16
2019-04-16T14:50:13.966Z,48.39
2019-04-16T14:51:12.965Z,48.57
2019-04-16T14:52:12.921Z,48.63
2019-04-16T14:53:12.921Z,48.57
2019-04-16T14:54:12.904Z,48.22
2019-04-16T14:55:12.946Z,47.52
2019-04-16T14:56:12.926Z,46.35
2019-04-16T14:57:12.905Z,45.58
2019-04-16T14:58:16.038Z,45.56
2019-04-16T14:59:12.918Z,45.06
2019-04-16T15:00:12.930Z,44.41
2019-04-16T15:01:12.858Z,43.63
2019-04-16T15:02:13.064Z,42.92
2019-04-16T15:03:12.869Z,42.50
2019-04-16T15:04:12.826Z,42.24
2019-04-16T15:05:15.764Z,41.84
2019-04-16T15:06:13.403Z,41.12
2019-04-16T15:07:12.802Z,40.59
2019-04-16T15:08:12.775Z,39.90
2019-04-16T15:09:12.755Z,39.53
2019-04-16T15:10:12.767Z,39.28
2019-04-16T15:11:13.517Z,38.59
2019-04-16T15:12:12.895Z,37.93
2019-04-16T15:13:12.935Z,37.57
2019-04-16T15:14:23.428Z,37.52
2019-04-16T15:15:13.607Z,37.31
2019-04-16T15:16:14.302Z,37.21
2019-04-16T15:17:13.399Z,37.07
2019-04-16T15:18:12.729Z,37.31
2019-04-16T15:19:12.970Z,37.40
2019-04-16T15:20:13.156Z,37.80
2019-04-16T15:21:13.079Z,38.46
2019-04-16T15:22:14.527Z,38.62
2019-04-16T15:23:12.748Z,38.53
2019-04-16T15:24:15.929Z,38.65
2019-04-16T15:25:13.740Z,39.06
2019-04-16T15:26:12.784Z,39.09
2019-04-16T15:27:12.618Z,38.31
2019-04-16T15:28:12.599Z,37.73
2019-04-16T15:29:12.539Z,37.12
2019-04-16T15:30:12.531Z,36.53
2019-04-16T15:31:12.520Z,36.29
2019-04-16T15:32:12.575Z,36.30
2019-04-16T15:33:12.549Z,36.31
2019-04-16T15:34:12.495Z,36.11
2019-04-16T15:35:14.873Z,35.60
2019-04-16T15:36:17.715Z,35.06
2019-04-16T15:37:16.394Z,34.97
2019-04-16T15:38:48.462Z,34.90
2019-04-16T15:39:13.106Z,34.92
2019-04-16T15:40:13.263Z,35.17
2019-04-16T15:41:13.374Z,35.47
2019-04-16T15:42:16.352Z,35.40
2019-04-16T15:43:12.586Z,35.03
2019-04-16T15:44:12.789Z,34.70
2019-04-16T15:45:13.625Z,34.55
2019-04-16T15:46:25.510Z,34.65
2019-04-16T15:47:14.841Z,34.76
2019-04-16T15:48:14.846Z,34.71
2019-04-16T15:49:13.373Z,34.68
2019-04-16T15:50:12.371Z,34.62
2019-04-16T15:51:14.882Z,34.35
2019-04-16T15:52:12.471Z,34.15
2019-04-16T15:53:12.582Z,33.74
2019-04-16T15:54:12.286Z,33.04
2019-04-16T15:55:12.316Z,32.61
2019-04-16T15:56:12.253Z,32.04
2019-04-16T15:57:12.271Z,31.66
2019-04-16T15:58:12.229Z,31.38
2019-04-16T15:59:14.128Z,31.21
2019-04-16T16:00:12.348Z,31.11
2019-04-16T16:01:13.547Z,31.12
2019-04-16T16:02:12.307Z,31.08
2019-04-16T16:03:12.415Z,31.21
2019-04-16T16:04:12.395Z,31.17
2019-04-16T16:05:12.698Z,31.25
2019-04-16T16:06:12.969Z,31.49
2019-04-16T16:07:12.225Z,31.73
2019-04-16T16:08:12.127Z,31.98
2019-04-16T16:09:12.507Z,32.27
2019-04-16T16:10:13.789Z,32.51
2019-04-16T16:11:16.384Z,32.71
2019-04-16T16:12:12.261Z,32.85
2019-04-16T16:13:12.173Z,32.62
2019-04-16T16:14:12.097Z,32.49
2019-04-16T16:15:12.422Z,32.33
2019-04-16T16:16:17.426Z,32.04
2019-04-16T16:17:13.108Z,31.99
2019-04-16T16:18:12.024Z,32.14
2019-04-16T16:19:12.243Z,32.28
2019-04-16T16:20:11.992Z,32.45
2019-04-16T16:21:11.979Z,32.79
2019-04-16T16:22:12.234Z,33.22
2019-04-16T16:23:11.984Z,33.39
2019-04-16T16:24:11.959Z,33.46
2019-04-16T16:25:11.985Z,33.40
2019-04-16T16:26:11.930Z,33.27
2019-04-16T16:27:11.972Z,33.42
2019-04-16T16:28:11.941Z,33.60
2019-04-16T16:29:14.117Z,33.58
2019-04-16T16:30:14.523Z,33.46
2019-04-16T16:31:13.011Z,33.48
2019-04-16T16:32:12.494Z,33.33
2019-04-16T16:33:11.936Z,33.10
2019-04-16T16:34:11.973Z,32.75
2019-04-16T16:35:16.720Z,32.35
2019-04-16T16:36:13.237Z,31.85
2019-04-16T16:37:11.950Z,31.45
2019-04-16T16:38:14.055Z,31.10
2019-04-16T16:39:11.783Z,30.77
2019-04-16T16:40:14.789Z,30.51
2019-04-16T16:41:12.105Z,30.30
2019-04-16T16:42:11.976Z,30.19
2019-04-16T16:43:14.156Z,29.85
2019-04-16T16:44:11.798Z,29.65
2019-04-16T16:45:11.761Z,29.48
2019-04-16T16:46:11.760Z,29.40
2019-04-16T16:47:11.735Z,29.33
2019-04-16T16:48:11.674Z,29.28
2019-04-16T16:49:11.709Z,29.14
2019-04-16T16:50:11.718Z,29.03
2019-04-16T16:51:14.849Z,28.82
2019-04-16T16:52:11.937Z,28.55
2019-04-16T16:53:12.006Z,28.20
2019-04-16T16:54:11.859Z,27.86
2019-04-16T16:55:11.750Z,27.54
2019-04-16T16:56:13.594Z,27.26
2019-04-16T16:57:11.608Z,27.00
2019-04-16T16:58:11.581Z,26.76
2019-04-16T16:59:12.091Z,26.53
2019-04-16T17:00:11.711Z,26.34
2019-04-16T17:01:13.910Z,26.19
2019-04-16T17:02:11.656Z,26.09
2019-04-16T17:03:11.552Z,25.98
2019-04-16T17:04:11.572Z,25.85
2019-04-16T17:05:11.863Z,25.69
2019-04-16T17:06:11.572Z,25.53
2019-04-16T17:07:11.563Z,25.36
2019-04-16T17:08:11.650Z,25.19
2019-04-16T17:09:11.813Z,25.04
2019-04-16T17:10:11.787Z,24.89
2019-04-16T17:11:16.440Z,24.75
2019-04-16T17:12:12.502Z,24.65
2019-04-16T17:13:14.650Z,24.57
2019-04-16T17:14:12.422Z,24.49
2019-04-16T17:15:11.510Z,24.46
2019-04-16T17:16:14.415Z,24.41
2019-04-16T17:17:14.757Z,24.37
2019-04-16T17:18:11.363Z,24.28
2019-04-16T17:19:11.351Z,24.20
2019-04-16T17:20:11.336Z,24.11
2019-04-16T17:21:11.375Z,23.97
2019-04-16T17:22:11.319Z,23.84
2019-04-16T17:23:16.419Z,23.71
2019-04-16T17:24:12.289Z,23.57
2019-04-16T17:25:12.235Z,23.43
2019-04-16T17:26:15.470Z,23.30
2019-04-16T17:27:11.287Z,23.16
2019-04-16T17:28:11.257Z,23.04
2019-04-16T17:29:11.261Z,22.90
2019-04-16T17:30:11.231Z,22.77
2019-04-16T17:31:11.216Z,22.62
2019-04-16T17:32:11.218Z,22.49
2019-04-16T17:33:11.189Z,22.36
2019-04-16T17:34:11.194Z,22.22
2019-04-16T17:35:15.568Z,22.08
2019-04-16T17:36:11.190Z,21.94
2019-04-16T17:37:11.159Z,21.83
2019-04-16T17:38:11.137Z,21.68
2019-04-16T17:39:11.130Z,21.58
2019-04-16T17:40:16.117Z,21.47
2019-04-16T17:41:12.137Z,21.37
2019-04-16T17:42:11.113Z,21.28
2019-04-16T17:43:13.815Z,21.20
2019-04-16T17:44:11.106Z,21.11
2019-04-16T17:45:11.068Z,21.02
2019-04-16T17:46:11.078Z,20.94
2019-04-16T17:47:11.042Z,20.85
2019-04-16T17:48:11.073Z,20.75
2019-04-16T17:49:11.055Z,20.67
2019-04-16T17:50:11.035Z,20.58
2019-04-16T17:51:11.004Z,20.47
2019-04-16T17:52:10.989Z,20.35
2019-04-16T17:53:11.152Z,20.26
2019-04-16T17:54:10.982Z,20.14
2019-04-16T17:55:10.948Z,20.04
2019-04-16T17:56:10.938Z,19.94
2019-04-16T17:57:10.932Z,19.85
2019-04-16T17:58:10.939Z,19.75
2019-04-16T17:59:10.926Z,19.64
2019-04-16T18:00:10.910Z,19.56
2019-04-16T18:01:11.130Z,19.47
2019-04-16T18:02:10.921Z,19.37
2019-04-16T18:03:10.888Z,19.27
2019-04-16T18:04:11.633Z,19.17
2019-04-16T18:05:10.838Z,19.08
2019-04-16T18:06:10.849Z,19.00
2019-04-16T18:07:10.825Z,18.93
2019-04-16T18:08:10.834Z,18.83
2019-04-16T18:09:10.830Z,18.74
2019-04-16T18:10:10.789Z,18.64
2019-04-16T18:11:10.911Z,18.54
2019-04-16T18:12:10.770Z,18.46
2019-04-16T18:13:10.772Z,18.34
2019-04-16T18:14:11.503Z,18.25
2019-04-16T18:15:16.238Z,18.15
2019-04-16T18:16:11.173Z,18.04
2019-04-16T18:17:10.753Z,17.97
2019-04-16T18:18:15.515Z,17.86
2019-04-16T18:19:11.848Z,17.77
2019-04-16T18:20:10.688Z,17.67
2019-04-16T18:21:10.726Z,17.56
2019-04-16T18:22:10.682Z,17.49
2019-04-16T18:23:10.688Z,17.40
2019-04-16T18:24:10.682Z,17.30
2019-04-16T18:25:10.630Z,17.22
2019-04-16T18:26:10.615Z,17.15
2019-04-16T18:27:10.612Z,17.05
2019-04-16T18:28:10.614Z,16.98
2019-04-16T18:29:10.671Z,16.91
2019-04-16T18:30:10.591Z,16.85
2019-04-16T18:31:10.714Z,16.80
2019-04-16T18:32:11.945Z,16.75
2019-04-16T18:33:10.644Z,16.70
2019-04-16T18:34:10.561Z,16.69
2019-04-16T18:35:10.547Z,16.68
2019-04-16T18:36:10.612Z,16.67
2019-04-16T18:37:10.519Z,16.65
2019-04-16T18:38:10.528Z,16.63
2019-04-16T18:39:10.906Z,16.62
2019-04-16T18:40:10.510Z,16.61
2019-04-16T18:41:10.628Z,16.59
2019-04-16T18:42:10.450Z,16.60
2019-04-16T18:43:10.501Z,16.59
2019-04-16T18:44:12.758Z,16.59
2019-04-16T18:45:10.414Z,16.58
2019-04-16T18:46:10.530Z,16.56
2019-04-16T18:47:11.037Z,16.57
2019-04-16T18:48:13.839Z,16.55
2019-04-16T18:49:10.382Z,16.55
2019-04-16T18:50:10.384Z,16.55
2019-04-16T18:51:10.371Z,16.54
2019-04-16T18:52:10.647Z,16.52
2019-04-16T18:53:12.165Z,16.51
2019-04-16T18:54:14.928Z,16.49
2019-04-16T18:55:10.335Z,16.47
2019-04-16T18:56:11.012Z,16.45
2019-04-16T18:57:10.369Z,16.42
2019-04-16T18:58:10.323Z,16.40
2019-04-16T18:59:10.252Z,16.32
2019-04-16T19:00:10.231Z,16.30
2019-04-16T19:01:10.231Z,16.28
2019-04-16T19:02:10.241Z,16.25
2019-04-16T19:03:14.753Z,16.23
2019-04-16T19:04:11.754Z,16.18
2019-04-16T19:05:10.884Z,16.14
2019-04-16T19:06:10.561Z,16.11
2019-04-16T19:07:10.254Z,16.06
2019-04-16T19:08:10.182Z,16.02
2019-04-16T19:09:10.139Z,15.99
2019-04-16T19:10:10.155Z,15.95
2019-04-16T19:11:10.140Z,15.94
2019-04-16T19:12:10.133Z,15.90
2019-04-16T19:13:11.700Z,15.87
2019-04-16T19:14:13.040Z,15.85
2019-04-16T19:15:10.081Z,15.83
2019-04-16T19:16:10.111Z,15.79
2019-04-16T19:17:10.070Z,15.76
2019-04-16T19:18:19.006Z,15.72
2019-04-16T19:19:11.039Z,15.68
2019-04-16T19:20:10.019Z,15.64
2019-04-16T19:21:10.006Z,15.61
2019-04-16T19:22:10.021Z,15.57
2019-04-16T19:23:09.993Z,15.53
2019-04-16T19:24:09.999Z,15.50
2019-04-16T19:25:10.038Z,15.48
2019-04-16T19:26:09.965Z,15.46
2019-04-16T19:27:09.946Z,15.43
2019-04-16T19:28:09.926Z,15.38
2019-04-16T19:29:14.505Z,15.36
2019-04-16T19:30:10.693Z,15.33
2019-04-16T19:31:25.139Z,15.30
2019-04-16T19:32:09.973Z,15.28
2019-04-16T19:33:10.456Z,15.26
2019-04-16T19:34:10.671Z,15.25
2019-04-16T19:35:14.432Z,15.23
2019-04-16T19:36:11.335Z,15.21
2019-04-16T19:37:09.977Z,15.19
2019-04-16T19:38:09.933Z,15.17
2019-04-16T19:39:13.836Z,15.14
2019-04-16T19:40:10.928Z,15.12
2019-04-16T19:41:10.167Z,15.12
2019-04-16T19:42:11.385Z,15.11
2019-04-16T19:43:09.990Z,15.10
2019-04-16T19:44:10.039Z,15.08
2019-04-16T19:45:12.126Z,15.08
2019-04-16T19:46:15.382Z,15.06
2019-04-16T19:47:10.781Z,15.05
2019-04-16T19:48:09.726Z,15.04
2019-04-16T19:49:09.718Z,15.03
2019-04-16T19:50:09.745Z,15.03
2019-04-16T19:51:09.682Z,15.02
2019-04-16T19:52:09.688Z,15.01
2019-04-16T19:53:13.771Z,14.99
2019-04-16T19:54:10.648Z,14.97
2019-04-16T19:55:12.253Z,14.95
2019-04-16T19:56:09.630Z,14.94
2019-04-16T19:57:09.737Z,14.93
2019-04-16T19:58:09.727Z,14.93
2019-04-16T19:59:09.599Z,14.93
2019-04-16T20:00:09.577Z,14.90
2019-04-16T20:01:11.999Z,14.88
2019-04-16T20:02:09.563Z,14.85
2019-04-16T20:03:09.765Z,14.81
2019-04-16T20:04:10.850Z,14.76
2019-04-16T20:05:09.519Z,14.74
2019-04-16T20:06:09.523Z,14.73
2019-04-16T20:07:09.514Z,14.71
2019-04-16T20:08:09.524Z,14.71
2019-04-16T20:09:09.698Z,14.70
2019-04-16T20:10:09.517Z,14.68
2019-04-16T20:11:09.461Z,14.66
2019-04-16T20:12:09.448Z,14.63
2019-04-16T20:13:09.431Z,14.59
2019-04-16T20:14:09.637Z,14.57
2019-04-16T20:15:09.851Z,14.54
2019-04-16T20:16:09.418Z,14.53
2019-04-16T20:17:09.409Z,14.50
2019-04-16T20:18:09.397Z,14.45
2019-04-16T20:19:09.396Z,14.43
2019-04-16T20:20:09.372Z,14.41
2019-04-16T20:21:09.368Z,14.38
2019-04-16T20:22:09.351Z,14.33
2019-04-16T20:23:09.659Z,14.28
2019-04-16T20:24:09.348Z,14.25
2019-04-16T20:25:09.309Z,14.21
2019-04-16T20:26:09.332Z,14.15
2019-04-16T20:27:09.291Z,14.11
2019-04-16T20:28:12.687Z,14.07
2019-04-16T20:29:10.297Z,14.02
2019-04-16T20:30:09.272Z,13.96
2019-04-16T20:31:09.246Z,13.92
2019-04-16T20:32:09.255Z,13.86
2019-04-16T20:33:09.512Z,13.80
2019-04-16T20:34:09.311Z,13.76
2019-04-16T20:35:09.553Z,13.69
2019-04-16T20:36:09.410Z,13.64
2019-04-16T20:37:09.429Z,13.58
2019-04-16T20:38:09.172Z,13.53
2019-04-16T20:39:09.320Z,13.48
2019-04-16T20:40:10.839Z,13.44
2019-04-16T20:41:09.215Z,13.40
2019-04-16T20:42:09.206Z,13.38
2019-04-16T20:43:09.128Z,13.34
2019-04-16T20:44:09.635Z,13.30
2019-04-16T20:45:09.137Z,13.28
2019-04-16T20:46:09.087Z,13.25
2019-04-16T20:47:09.094Z,13.22
2019-04-16T20:48:12.398Z,13.19
2019-04-16T20:49:10.739Z,13.17
2019-04-16T20:50:09.045Z,13.16
2019-04-16T20:51:09.051Z,13.15
2019-04-16T20:52:09.028Z,13.17
2019-04-16T20:53:09.274Z,13.15
2019-04-16T20:54:12.225Z,13.18
2019-04-16T20:55:08.996Z,13.20
2019-04-16T20:56:10.707Z,13.21
2019-04-16T20:57:09.000Z,13.23
2019-04-16T20:58:08.950Z,13.25
2019-04-16T20:59:08.966Z,13.25
2019-04-16T21:00:10.899Z,13.25
2019-04-16T21:01:08.912Z,13.24
2019-04-16T21:02:08.917Z,13.23
2019-04-16T21:03:21.334Z,13.23
2019-04-16T21:04:09.924Z,13.22
2019-04-16T21:05:21.531Z,13.19
2019-04-16T21:06:09.902Z,13.18
2019-04-16T21:07:14.318Z,13.16
2019-04-16T21:08:09.881Z,13.14
2019-04-16T21:09:08.849Z,13.09
2019-04-16T21:10:08.859Z,13.05
2019-04-16T21:11:09.583Z,13.02
2019-04-16T21:12:12.885Z,12.99
2019-04-16T21:13:08.777Z,12.94
2019-04-16T21:14:08.789Z,12.92
2019-04-16T21:15:08.770Z,12.87
2019-04-16T21:16:08.788Z,12.84
2019-04-16T21:17:08.755Z,12.82
2019-04-16T21:18:11.923Z,12.81
2019-04-16T21:19:22.491Z,12.78
2019-04-16T21:20:09.780Z,12.77
2019-04-16T21:21:08.729Z,12.76
2019-04-16T21:22:08.699Z,12.75
2019-04-16T21:23:08.681Z,12.75
2019-04-16T21:24:09.216Z,12.75
2019-04-16T21:25:12.996Z,12.75
2019-04-16T21:26:09.677Z,12.75
2019-04-16T21:27:10.586Z,12.74
2019-04-16T21:28:08.638Z,12.72
2019-04-16T21:29:08.627Z,12.72
2019-04-16T21:30:12.773Z,12.69
2019-04-16T21:31:08.596Z,12.67
2019-04-16T21:32:10.626Z,12.66
2019-04-16T21:33:08.565Z,12.65
2019-04-16T21:34:08.558Z,12.65
2019-04-16T21:35:08.548Z,12.66
2019-04-16T21:36:08.548Z,12.69
2019-04-16T21:37:09.573Z,12.69
2019-04-16T21:38:08.566Z,12.71
2019-04-16T21:39:08.512Z,12.73
2019-04-16T21:40:08.502Z,12.75
2019-04-16T21:41:08.519Z,12.76
2019-04-16T21:42:08.480Z,12.77
2019-04-16T21:43:08.961Z,12.77
2019-04-16T21:44:11.550Z,12.79
2019-04-16T21:45:08.468Z,12.79
2019-04-16T21:46:08.427Z,12.80
2019-04-16T21:47:08.421Z,12.82
2019-04-16T21:48:12.233Z,12.81
2019-04-16T21:49:09.062Z,12.82
2019-04-16T21:50:08.559Z,12.82
2019-04-16T21:51:09.829Z,12.81
2019-04-16T21:52:08.367Z,12.79
2019-04-16T21:53:08.366Z,12.77
2019-04-16T21:54:08.356Z,12.75
2019-04-16T21:55:08.342Z,12.72
2019-04-16T21:56:09.043Z,12.71
2019-04-16T21:57:09.857Z,12.68
2019-04-16T21:58:08.305Z,12.66
2019-04-16T21:59:08.294Z,12.64
2019-04-16T22:00:08.278Z,12.62
2019-04-16T22:01:08.300Z,12.59
2019-04-16T22:02:08.258Z,12.57
2019-04-16T22:03:09.818Z,12.56
2019-04-16T22:04:13.565Z,12.55
2019-04-16T22:05:08.935Z,12.55
2019-04-16T22:06:08.462Z,12.53
2019-04-16T22:07:08.773Z,12.53
2019-04-16T22:08:08.188Z,12.52
2019-04-16T22:09:08.183Z,12.52
2019-04-16T22:10:08.165Z,12.52
2019-04-16T22:11:11.483Z,12.52
2019-04-16T22:12:08.148Z,12.52
2019-04-16T22:13:08.145Z,12.50
2019-04-16T22:14:08.261Z,12.48